Latest Weather Observations for Albury

IDV60801

Issued at 7:31 pm EST Saturday 28 May 2016 (issued every 30 minutes, with the page automatically refreshed every 10 minutes)

About weather observations | Map of weather stations | Latest weather observations for VIC | Other Formats
Station Details ID: 072160 Name: ALBURY AIRPORT AWS Lat: -36.07 Lon: 146.95 Height: 163.5 m
Data from the previous 72 hours. | See also: Recent months at Albury
Date/Time
EST
Temp
°C
App
Temp
°C
Dew
Point
Rel
Hum
%
Delta-T
°C
Wind Press
QNH
hPa
Press
MSL
hPa
Rain
since 9 am
mm
Dir
 
Spd
km/h
Gust
km/h
Spd
kts
Gust
kts
28/07:30pm 9.0 5.3 4.2 72 2.1 WSW 13 17 7 9 1013.5 1013.6 0.2
28/07:00pm 9.6 6.3 4.4 70 2.3 W 11 17 6 9 1013.1 1013.2 0.2
28/06:30pm 9.6 6.3 4.6 71 2.2 W 11 13 6 7 1012.7 1012.8 0.2
28/06:00pm 9.9 6.2 4.7 70 2.4 W 13 17 7 9 1012.3 1012.4 0.2
28/05:30pm 10.3 7.4 4.5 67 2.6 WNW 9 13 5 7 1011.7 1011.8 0.2
28/05:00pm 11.0 7.3 4.5 64 3.0 W 13 17 7 9 1011.2 1011.2 0.2
28/04:30pm 12.7 9.0 4.7 58 3.7 WNW 13 17 7 9 1010.8 1010.8 0.2
28/04:00pm 13.3 8.4 4.2 54 4.2 W 19 24 10 13 1010.4 1010.4 0.2
28/03:30pm 13.7 8.5 3.5 50 4.6 WSW 20 26 11 14 1010.0 1010.0 0.2
28/03:00pm 14.3 9.1 2.5 45 5.3 W 19 26 10 14 1009.5 1009.5 0.2
28/02:30pm 14.0 9.1 4.9 54 4.3 WNW 20 30 11 16 1009.0 1009.1 0.2
28/02:00pm 13.9 10.0 5.5 57 4.0 WNW 15 24 8 13 1008.9 1009.0 0.2
28/01:30pm 13.4 8.8 5.8 60 3.6 WNW 19 24 10 13 1008.8 1008.9 0.2
28/01:00pm 13.5 9.5 4.9 56 4.0 WSW 15 20 8 11 1008.8 1008.9 0.0
28/12:30pm 13.2 10.3 4.4 55 4.1 WNW 9 17 5 9 1008.6 1008.7 0.0
28/12:00pm 13.0 10.8 5.2 59 3.7 WSW 6 13 3 7 1008.9 1009.0 0.0
28/11:30am 11.7 9.3 4.4 61 3.3 SW 6 11 3 6 1009.0 1009.1 0.0
28/11:00am 10.6 9.0 4.3 65 2.8 SW 2 6 1 3 1009.2 1009.3 0.0
28/10:30am 10.2 7.6 4.4 67 2.6 SE 7 11 4 6 1009.2 1009.3 0.0
28/10:00am 10.4 9.1 5.8 73 2.1 SSE 2 6 1 3 1009.2 1009.3 0.0
28/09:30am 8.6 7.8 6.4 86 1.0 CALM 0 7 0 4 1009.0 1009.1 0.0
28/09:00am 8.2 7.3 6.0 86 1.0 CALM 0 0 0 0 1008.8 1008.9 0.0
28/08:30am 7.9 6.3 6.4 90 0.7 WNW 4 7 2 4 1008.7 1008.8 0.0
28/08:00am 7.4 6.4 5.7 89 0.8 CALM 0 0 0 0 1008.5 1008.6 0.0
28/07:30am 7.5 5.3 5.5 87 0.9 SSE 6 9 3 5 1008.2 1008.3 0.0
28/07:00am 7.7 5.9 5.3 85 1.1 SE 4 7 2 4 1007.8 1007.9 0.0
28/06:30am 7.7 5.4 5.5 86 1.0 SSE 7 13 4 7 1007.2 1007.3 0.0
28/06:00am 7.7 5.4 5.5 86 1.0 SSE 7 11 4 6 1007.1 1007.2 0.0
28/05:30am 7.6 5.5 5.6 87 0.9 SE 6 9 3 5 1006.8 1006.9 0.0
28/05:00am 7.4 6.4 5.7 89 0.8 CALM 0 0 0 0 1006.8 1006.9 0.0
28/04:30am 7.1 6.1 5.6 90 0.7 CALM 0 0 0 0 1006.8 1006.9 0.0
28/04:00am 6.7 5.7 5.5 92 0.5 CALM 0 0 0 0 1006.7 1006.8 0.0
28/03:30am 6.5 5.5 5.5 93 0.4 CALM 0 0 0 0 1006.8 1006.9 0.0
28/03:00am 6.1 5.0 5.2 94 0.4 CALM 0 0 0 0 1007.0 1007.1 0.0
28/02:30am 5.8 3.9 5.1 95 0.3 E 4 7 2 4 1007.2 1007.3 0.0
28/02:00am 5.5 3.2 4.6 94 0.4 SE 6 9 3 5 1007.3 1007.4 0.0
28/01:30am 5.4 2.9 5.0 97 0.2 SE 7 11 4 6 1007.6 1007.7 0.0
28/01:00am 5.0 3.9 4.9 99 0.0 CALM 0 0 0 0 1007.9 1008.0 0.0
28/12:30am 4.8 3.6 4.7 99 0.0 CALM 0 0 0 0 1008.1 1008.2 0.0
28/12:00am 4.4 3.1 4.3 99 0.0 CALM 0 0 0 0 1008.5 1008.6 0.0
 
Date/Time
EST
Temp
°C
App
Temp
°C
Dew
Point
Rel
Hum
%
Delta-T
°C
Wind Press
QNH
hPa
Press
MSL
hPa
Rain
since 9 am
mm
Dir
 
Spd
km/h
Gust
km/h
Spd
kts
Gust
kts
27/11:30pm 4.7 1.8 4.6 99 0.0 SE 9 11 5 6 1008.6 1008.7 0.0
27/11:21pm 4.5 1.9 4.4 99 0.0 SE 7 11 4 6 1008.7 1008.8 0.0
27/11:03pm 3.9 2.1 3.6 98 0.1 SE 2 11 1 6 1008.7 1008.8 0.0
27/11:00pm 4.4 3.1 4.1 98 0.1 CALM 0 0 0 0 1008.7 1008.8 0.0
27/10:30pm 5.0 3.8 4.6 97 0.2 CALM 0 0 0 0 1008.8 1008.9 0.0
27/10:24pm 4.9 3.7 4.5 97 0.2 CALM 0 0 0 0 1008.9 1009.0 0.0
27/10:09pm 4.3 2.9 3.6 95 0.3 CALM 0 0 0 0 1009.0 1009.1 0.0
27/10:00pm 4.3 2.9 3.4 94 0.4 CALM 0 0 0 0 1009.0 1009.1 0.0
27/09:30pm 5.2 4.0 4.5 95 0.3 CALM 0 0 0 0 1009.0 1009.1 0.0
27/09:00pm 5.0 2.5 3.8 92 0.5 ENE 6 7 3 4 1009.1 1009.2 0.0
27/08:30pm 5.7 3.6 4.0 89 0.7 ESE 4 9 2 5 1009.0 1009.1 0.0
27/08:00pm 6.9 5.8 5.1 88 0.8 CALM 0 0 0 0 1009.1 1009.2 0.0
27/07:30pm 6.6 5.3 3.9 83 1.2 CALM 0 0 0 0 1008.9 1009.0 0.0
27/07:00pm 8.1 5.8 4.9 80 1.4 NNE 6 7 3 4 1008.8 1008.9 0.0
27/06:30pm 9.1 5.9 5.3 77 1.7 NNW 11 13 6 7 1008.6 1008.7 0.0
27/06:00pm 9.6 6.5 5.4 75 1.9 NW 11 13 6 7 1008.4 1008.5 0.0
27/05:30pm 10.0 6.4 5.2 72 2.2 NW 13 15 7 8 1008.1 1008.2 0.0
27/05:00pm 11.1 7.0 4.6 64 3.0 WNW 15 19 8 10 1007.8 1007.9 0.0
27/04:30pm 12.4 8.5 5.3 62 3.3 WNW 15 20 8 11 1007.6 1007.7 0.0
27/04:00pm 12.8 7.5 5.2 60 3.6 W 22 28 12 15 1007.3 1007.4 0.0
27/03:30pm 13.2 8.2 4.4 55 4.1 W 20 35 11 19 1007.2 1007.3 0.0
27/03:00pm 13.7 9.9 5.6 58 3.9 WSW 15 20 8 11 1007.1 1007.2 0.0
27/02:30pm 12.2 7.4 4.9 61 3.4 WSW 19 28 10 15 1007.1 1007.2 0.0
27/02:00pm 12.0 7.2 4.7 61 3.4 SW 19 24 10 13 1007.1 1007.2 0.0
27/01:30pm 12.5 7.7 4.5 58 3.7 SW 19 33 10 18 1007.1 1007.2 0.0
27/01:00pm 12.4 7.2 5.3 62 3.3 W 22 33 12 18 1007.2 1007.3 0.0
27/12:30pm 11.6 7.0 5.5 66 2.8 W 19 24 10 13 1007.3 1007.4 0.0
27/12:00pm 12.2 7.6 6.3 67 2.8 W 20 28 11 15 1007.5 1007.6 0.0
27/11:30am 12.1 7.7 7.4 73 2.3 W 20 26 11 14 1007.8 1007.9 0.0
27/11:00am 11.4 7.8 6.9 74 2.2 W 15 22 8 12 1008.2 1008.3 0.0
27/10:30am 10.2 6.9 6.4 77 1.8 W 13 19 7 10 1008.6 1008.7 0.0
27/10:00am 9.6 5.6 6.5 81 1.5 WNW 17 20 9 11 1008.6 1008.7 0.0
27/09:30am 8.7 5.0 6.2 84 1.2 WSW 15 22 8 12 1008.6 1008.7 0.0
27/09:00am 8.0 5.7 5.8 86 1.0 SW 7 13 4 7 1008.4 1008.5 1.2
27/08:30am 7.5 5.7 5.6 88 0.9 S 4 7 2 4 1008.2 1008.3 1.2
27/08:00am 6.7 4.3 5.3 91 0.6 SW 7 13 4 7 1007.9 1008.0 1.2
27/07:30am 5.9 3.6 4.9 93 0.4 W 6 9 3 5 1007.7 1007.8 1.2
27/07:00am 4.9 2.4 3.6 91 0.5 WNW 6 13 3 7 1007.5 1007.6 1.2
27/06:30am 5.8 2.9 4.6 92 0.5 W 9 11 5 6 1007.4 1007.5 1.2
27/06:00am 6.1 3.2 4.9 92 0.5 W 9 15 5 8 1007.1 1007.2 1.2
27/05:30am 5.6 2.3 4.4 92 0.5 WNW 11 13 6 7 1007.1 1007.2 1.2
27/05:00am 6.0 3.1 4.8 92 0.5 NNW 9 11 5 6 1007.0 1007.1 1.2
27/04:30am 6.2 4.3 4.7 90 0.7 N 4 9 2 5 1006.9 1007.0 1.2
27/04:00am 6.7 4.3 5.2 90 0.7 WNW 7 11 4 6 1006.6 1006.7 1.2
27/03:30am 6.5 4.1 5.1 91 0.6 NNW 7 11 4 6 1006.7 1006.8 1.2
27/03:00am 7.0 3.5 5.5 90 0.7 NW 13 15 7 8 1006.5 1006.5 1.2
27/02:30am 7.7 3.5 5.8 88 0.9 WNW 17 20 9 11 1006.5 1006.5 1.2
27/02:00am 7.9 3.8 6.0 88 0.9 WNW 17 22 9 12 1006.3 1006.3 1.2
27/01:30am 8.1 3.5 6.4 89 0.8 W 20 32 11 17 1005.8 1005.8 1.2
27/01:00am 8.4 5.1 6.4 87 0.9 W 13 19 7 10 1005.9 1005.9 1.2
27/12:30am 8.2 6.0 6.2 87 0.9 W 7 15 4 8 1006.0 1006.0 1.2
27/12:00am 8.6 5.6 6.2 85 1.1 W 11 17 6 9 1006.0 1006.0 1.2
 
Date/Time
EST
Temp
°C
App
Temp
°C
Dew
Point
Rel
Hum
%
Delta-T
°C
Wind Press
QNH
hPa
Press
MSL
hPa
Rain
since 9 am
mm
Dir
 
Spd
km/h
Gust
km/h
Spd
kts
Gust
kts
26/11:30pm 8.8 5.9 6.6 86 1.0 WNW 11 17 6 9 1006.0 1006.0 1.2
26/11:00pm 8.7 6.7 6.3 85 1.1 WNW 6 11 3 6 1005.9 1005.9 1.2
26/10:30pm 9.5 5.9 6.9 84 1.2 W 15 20 8 11 1005.7 1005.7 1.2
26/10:00pm 9.9 5.6 7.2 83 1.3 W 19 28 10 15 1005.7 1005.7 1.2
26/09:30pm 10.0 5.6 7.4 84 1.2 W 20 28 11 15 1005.5 1005.5 1.2
26/09:00pm 10.3 7.7 7.9 85 1.2 WSW 11 17 6 9 1005.3 1005.3 1.2
26/08:30pm 10.5 6.5 8.4 87 1.0 W 19 28 10 15 1004.9 1004.9 1.2
26/08:24pm 10.5 7.0 8.6 88 0.9 W 17 22 9 12 1004.8 1004.8 1.2
26/08:00pm 10.7 7.6 8.8 88 0.9 W 15 20 8 11 1004.9 1004.9 1.2
26/07:40pm 10.7 7.2 8.6 87 1.0 W 17 24 9 13 1004.6 1004.6 1.2
26/07:37pm 10.7 7.2 8.6 87 1.0 W 17 24 9 13 1004.5 1004.5 1.2
26/07:30pm 10.7 6.6 8.6 87 1.0 W 20 32 11 17 1004.5 1004.5 1.2
26/07:00pm 11.3 7.3 8.9 85 1.2 W 20 28 11 15 1004.1 1004.1 1.2
26/06:56pm 11.5 7.5 9.2 86 1.2 W 20 28 11 15 1004.0 1004.0 1.2
26/06:30pm 11.7 7.8 9.3 85 1.2 WNW 20 30 11 16 1003.4 1003.4 1.2
26/06:00pm 12.1 9.7 10.0 87 1.1 WNW 13 19 7 10 1003.1 1003.1 1.2
26/05:30pm 12.1 8.8 9.7 85 1.2 WNW 17 24 9 13 1002.8 1002.9 1.2
26/05:00pm 12.2 9.8 9.9 86 1.2 W 13 15 7 8 1002.6 1002.7 1.2
26/04:30pm 13.1 11.6 10.5 84 1.4 W 9 13 5 7 1002.5 1002.6 1.2
26/04:00pm 13.7 10.9 10.1 79 1.9 W 15 22 8 12 1002.3 1002.4 1.2
26/03:30pm 12.9 10.1 10.1 83 1.5 WNW 15 20 8 11 1002.4 1002.5 1.2
26/03:00pm 13.0 10.3 10.4 84 1.4 WNW 15 20 8 11 1002.2 1002.3 1.2
26/02:30pm 13.2 9.9 10.9 86 1.2 WNW 19 26 10 14 1002.1 1002.2 1.2
26/02:00pm 12.6 9.0 10.7 88 1.0 W 20 28 11 15 1002.2 1002.3 1.2
26/01:57pm 12.7 9.2 10.8 88 1.0 W 20 28 11 15 1002.2 1002.3 1.2
26/01:51pm 12.8 9.6 11.2 90 0.8 W 19 30 10 16 1002.3 1002.4 1.2
26/01:30pm 12.7 9.4 11.6 93 0.6 WNW 20 28 11 15 1002.6 1002.7 1.2
26/01:29pm 12.7 9.4 11.6 93 0.6 WNW 20 28 11 15 1002.6 1002.7 1.2
26/01:00pm 12.1 8.8 10.8 92 0.7 WNW 19 24 10 13 1002.7 1002.8 1.2
26/12:30pm 12.5 9.6 11.1 91 0.7 WNW 17 24 9 13 1002.7 1002.8 1.2
26/12:19pm 12.1 10.0 11.0 93 0.6 NW 13 19 7 10 1002.7 1002.8 1.2
26/12:10pm 12.1 10.0 11.2 94 0.5 N 13 20 7 11 1002.8 1002.9 1.2
26/12:00pm 12.1 9.7 11.3 95 0.4 NNW 15 20 8 11 1002.9 1003.0 1.2
26/11:30am 11.9 9.4 11.1 95 0.4 NW 15 22 8 12 1003.8 1003.8 1.2
26/11:14am 11.8 9.8 11.5 98 0.2 NW 13 17 7 9 1004.0 1004.0 1.2
26/11:00am 11.6 9.6 11.4 99 0.1 ENE 13 19 7 10 1003.3 1003.3 1.0
26/10:58am 11.6 8.8 11.4 99 0.1 ENE 17 20 9 11 1003.2 1003.2 1.0
26/10:38am 11.4 10.1 11.2 99 0.1 N 9 13 5 7 1004.4 1004.4 1.0
26/10:30am 11.4 10.5 11.2 99 0.1 N 7 11 4 6 1004.6 1004.6 1.0
26/10:00am 11.2 10.3 11.2 100 0.0 N 7 11 4 6 1004.9 1004.9 0.6
26/09:42am 11.0 9.6 11.0 100 0.0 NNE 9 13 5 7 1004.8 1004.8 0.4
26/09:30am 10.8 9.4 10.8 100 0.0 NNE 9 13 5 7 1004.8 1004.8 0.4
26/09:00am 10.5 9.4 10.5 100 0.0 NNE 7 11 4 6 1005.0 1005.0 15.2
26/08:45am 10.4 8.9 10.4 100 0.0 NE 9 11 5 6 1005.3 1005.3 14.8
26/08:43am 10.4 8.9 10.4 100 0.0 NE 9 11 5 6 1005.3 1005.3 14.6
26/08:30am 10.4 8.5 10.4 100 0.0 NE 11 13 6 7 1005.3 1005.3 14.0
26/08:00am 10.3 8.3 10.3 100 0.0 NE 11 15 6 8 1005.7 1005.7 13.2
26/07:30am 10.3 8.0 10.3 100 0.0 NE 13 20 7 11 1005.8 1005.8 11.6
26/07:00am 10.2 8.2 10.2 100 0.0 NE 11 13 6 7 1006.0 1006.0 11.0
26/06:30am 10.1 8.5 10.1 100 0.0 ENE 9 11 5 6 1006.4 1006.4 10.4
26/06:18am 10.1 8.5 10.1 100 0.0 ENE 9 13 5 7 1006.6 1006.7 9.8
26/06:00am 10.0 8.7 10.0 100 0.0 NE 7 11 4 6 1006.9 1007.0 8.2
26/05:30am 10.0 8.3 10.0 100 0.0 ENE 9 13 5 7 1007.1 1007.2 6.4
26/05:00am 9.8 8.5 9.8 100 0.0 E 7 9 4 5 1007.5 1007.6 5.8
26/04:30am 9.7 8.3 9.7 100 0.0 ENE 7 9 4 5 1007.9 1008.0 4.4
26/04:00am 9.7 7.9 9.6 99 0.1 E 9 11 5 6 1008.3 1008.4 4.0
26/03:55am 9.6 7.8 9.5 99 0.1 E 9 11 5 6 1008.3 1008.4 3.8
26/03:47am 9.6 7.8 9.5 99 0.1 E 9 11 5 6 1008.5 1008.6 3.8
26/03:30am 9.6 8.2 9.5 99 0.1 SE 7 9 4 5 1008.8 1008.9 3.4
26/03:00am 9.7 9.2 9.2 97 0.2 N 2 6 1 3 1009.8 1009.8 2.0
26/02:30am 9.8 8.3 9.0 95 0.4 NNW 7 11 4 6 1010.1 1010.1 1.6
26/02:13am 10.1 8.5 8.7 91 0.7 N 7 11 4 6 1010.0 1010.0 1.2
26/02:12am 10.1 8.1 8.7 91 0.7 N 9 11 5 6 1010.0 1010.0 1.2
26/02:00am 10.3 8.3 8.7 90 0.8 NNW 9 13 5 7 1010.2 1010.2 1.2
26/01:34am 10.6 7.9 8.9 89 0.8 NW 13 15 7 8 1010.4 1010.4 1.0
26/01:30am 10.6 8.2 8.7 88 0.9 NW 11 15 6 8 1010.4 1010.4 1.0
26/01:00am 10.9 11.0 10.3 96 0.3 CALM 0 0 0 0 1010.6 1010.6 1.0
26/12:47am 11.0 11.1 10.1 94 0.5 CALM 0 0 0 0 1010.9 1010.9 1.0
26/12:34am 11.0 11.1 10.1 94 0.5 CALM 0 0 0 0 1010.9 1010.9 0.8
26/12:30am 11.0 11.1 10.1 94 0.5 CALM 0 0 0 0 1011.0 1011.0 0.8
26/12:15am 11.0 10.0 10.2 95 0.4 N 6 6 3 3 1011.6 1011.6 0.8
26/12:00am 11.0 9.7 10.1 94 0.5 NNE 7 9 4 5 1011.8 1011.9 0.6
 
Date/Time
EST
Temp
°C
App
Temp
°C
Dew
Point
Rel
Hum
%
Delta-T
°C
Wind Press
QNH
hPa
Press
MSL
hPa
Rain
since 9 am
mm
Dir
 
Spd
km/h
Gust
km/h
Spd
kts
Gust
kts
25/11:30pm 11.3 9.9 9.7 90 0.8 NE 7 11 4 6 1012.0 1012.1 0.2
25/11:00pm 12.2 9.9 9.0 81 1.6 N 11 17 6 9 1012.4 1012.5 0.0
25/10:30pm 12.2 10.3 9.0 81 1.6 N 9 11 5 6 1012.2 1012.3 0.0
25/10:00pm 12.3 11.0 9.1 81 1.6 NNE 6 7 3 4 1012.1 1012.2 0.0
25/09:30pm 12.3 11.0 9.1 81 1.6 NNE 6 9 3 5 1012.5 1012.6 0.0
25/09:00pm 12.2 10.4 9.4 83 1.4 NE 9 11 5 6 1012.9 1013.0 0.0
25/08:30pm 12.5 10.6 9.0 79 1.8 NNE 9 15 5 8 1013.5 1013.6 0.0
25/08:00pm 12.6 10.4 9.2 80 1.7 NE 11 17 6 9 1013.0 1013.1 0.0

Other Formats:

Comma delimited format used in spreadsheet applications
http://www.bom.gov.au/fwo/IDV60801/IDV60801.95896.axf

JavaScript Object Notation format (JSON) in row-major order
http://www.bom.gov.au/fwo/IDV60801/IDV60801.95896.json